Date,TemperatureHighF,TemperatureAvgF,TemperatureLowF,DewpointHighF,DewpointAvgF,DewpointLowF,HumidityHigh,HumidityAvg,HumidityLow,PressureMaxIn,PressureMinIn,WindSpeedMaxMPH,WindSpeedAvgMPH,GustSpeedMaxMPH,PrecipitationSumIn
2013-3-1,31.4,19.7,8.2,15.7,10.3,3.0,86,68,48,30.38,30.25,1,0,2,0.00
2013-3-2,30.1,15.1,-4.7,12.8,5.2,-9.0,85,67,45,30.36,30.14,2,0,2,0.00
2013-3-3,34.4,25.3,13.0,12.8,10.0,6.0,76,53,37,30.13,29.95,3,0,4,0.00
2013-3-4,26.6,23.5,20.7,20.4,16.0,6.0,89,74,41,30.01,29.92,1,0,2,0.17
2013-3-5,30.7,24.8,18.1,24.3,20.8,14.9,91,85,74,30.31,29.99,1,0,3,0.30
2013-3-6,29.7,19.8,7.3,17.9,13.5,3.7,87,77,59,30.41,30.32,0,0,2,0.02
2013-3-7,32.8,16.6,-2.7,18.4,8.8,-6.8,87,73,54,30.38,30.27,2,0,3,0.00
2013-3-8,36.7,26.5,17.6,26.5,20.1,11.6,85,77,65,30.29,30.06,1,0,4,0.00
2013-3-9,34.1,32.1,26.3,32.6,30.1,22.7,94,92,85,30.05,29.67,0,0,1,0.94
2013-3-10,31.1,26.4,20.1,29.3,23.4,16.9,93,88,83,30.03,29.81,0,0,0,0.00
2013-3-11,30.8,22.4,15.7,23.2,17.6,12.5,88,82,70,29.96,29.75,1,0,3,0.00
2013-3-12,30.1,20.0,13.1,18.4,12.6,8.3,89,74,53,30.20,29.80,3,1,10,0.00
2013-3-13,32.7,18.6,2.5,19.3,11.3,-1.0,89,74,53,30.36,30.19,2,0,6,0.00
2013-3-14,39.7,29.3,21.4,29.3,23.5,15.8,90,79,65,30.18,29.97,2,0,3,0.16
2013-3-15,31.8,27.4,19.9,25.8,22.1,16.7,90,81,61,29.97,29.86,1,0,3,0.20
2013-3-16,23.6,13.4,1.9,15.9,5.2,-5.1,86,70,52,30.27,29.96,2,0,3,0.02
2013-3-17,22.1,8.3,-12.4,13.8,-1.0,-17.3,84,67,50,30.29,29.83,3,0,6,0.00
2013-3-18,27.3,19.4,8.5,25.0,14.2,2.5,91,80,67,29.80,29.47,3,1,5,0.33
2013-3-19,25.6,11.1,1.9,7.2,0.2,-5.5,79,63,45,30.20,29.79,2,1,3,0.00
2013-3-20,26.6,11.4,0.9,7.5,-0.5,-6.7,70,59,42,30.22,30.11,3,1,4,0.00
2013-3-21,30.5,12.3,-6.7,11.3,1.9,-11.5,84,65,43,30.16,30.05,1,0,2,0.00
2013-3-22,37.3,18.6,-2.6,15.2,7.0,-7.0,87,63,40,30.10,30.03,2,0,2,0.00
2013-3-23,41.3,27.0,10.1,22.0,15.0,5.4,82,63,39,30.13,30.06,2,0,2,0.00
2013-3-24,35.6,29.4,25.6,25.3,22.1,19.2,88,74,63,30.09,30.01,1,0,2,0.03
2013-3-25,38.3,28.6,18.7,21.1,17.2,12.4,77,63,46,30.22,30.08,4,1,6,0.00
2013-3-26,42.0,28.4,14.7,21.1,16.8,10.7,89,64,39,30.27,30.22,2,0,2,0.00
2013-3-27,43.7,31.8,20.0,21.3,18.6,14.5,80,60,36,30.30,30.25,2,0,4,0.00
2013-3-28,43.9,29.9,13.5,23.1,18.1,9.6,87,64,39,30.30,30.23,2,0,3,0.00
2013-3-29,49.4,37.8,27.0,34.8,29.2,20.3,86,72,55,30.24,29.96,2,1,4,0.00
2013-3-30,55.1,41.7,32.2,40.1,34.8,28.2,94,78,49,29.95,29.78,2,0,4,0.11
2013-3-31,37.0,30.3,18.2,29.2,19.4,9.4,90,66,39,30.09,29.70,3,1,8,0.00